Jacksonville, FL (32207)

8:35 AM EDT on April 18, 2015 (GMT -0400)
San Marco | | Change Station
CLOSE
Current Station
Personal Weather Station
Location: Jacksonville, FL
Elevation: 39 ft
Nearby Weather Stations

Elev 39 ft 30.29 °N, 81.64 °W | Updated 23 seconds ago

Mostly Cloudy
Mostly Cloudy
73.0 °F
Feels Like 73.0 °F
N
0.0
Wind Variable Wind from WSW

Today
High -- | Low -- °F
--% Chance of Precip.
Yesterday
High -- | Low -- °F
Precip. -- in
6:56 AM 7:55 PM
Waning Crescent, 0% visible
Pressure 29.97 in
Visibility 9.0 miles
Clouds Few 1000 ft
Scattered Clouds 11000 ft
Mostly Cloudy 25000 ft
Dew Point 73 °F
Humidity 99%
Rainfall 0.00 in
Snow Depth Not available.
UV 0 out of 12
Pollen 8.30 out of 12
Air Quality Not available.
Flu Activity Local Activity
METAR KNIP 181153Z 20004KT 9SM FEW010 SCT110 BKN250 23/20 A2998 RMK AO2 SLP148 T02280200 10228 20222 53011

More Conditions Fewer Conditions

Pressure 29.97 in
Visibility 9.0 miles
Clouds Few 1000 ft
Scattered Clouds 11000 ft
Mostly Cloudy 25000 ft
Dew Point 73 °F
Humidity 99%
Rainfall 0.00 in
Snow Depth Not available.
UV 0 out of 12
Pollen 8.30 out of 12
Air Quality Not available.
Flu Activity Local Activity
METAR KNIP 181153Z 20004KT 9SM FEW010 SCT110 BKN250 23/20 A2998 RMK AO2 SLP148 T02280200 10228 20222 53011

More Conditions Fewer Conditions

10-Day Weather Forecast

Almanac

Astronomy

Apr. 18, 2015 Rise Set
Actual Time
Civil Twilight
Nautical Twilight
Astronomical Twilight
Moon
Length of Visible Light
Length of Day
Tomorrow will be .
, % of the Moon is Illuminated

Today's Extremes

State Highs State Lows

Community

WunderPhotos

Upload Photos

1,814,376 photos uploaded!

WunderBlogs® & News

Nearby

Air Quality

  Air Quality AQ Index Pollutant
Not available.

Snow Depth

Station Depth Elevation

Earthquake Activity

City Distance Mag. Time & Date
Minimum magnitude displayed is 2.5.

Coastal Water Temperatures

Place Temperature

Stations

Nearby Weather Stations

Station Location Temp. Windchill Dew Point Humidity Wind Precip. Elev Updated Type